Time;durP1;ratioP1;P1;durP2;ratioP2;P2;SDS_P1;SDS_P2;PMS_P1;PMS_P2;Temp;Humidity;BMP_temperature;BMP_pressure;BME280_temperature;BME280_humidity;BME280_pressure;Samples;Min_cycle;Max_cycle;Signal;HPM_P1;HPM_P2
2022/08/04 00:46:23;;;;;;;5.00;2.70;;;;;;;;;;6223861;22;20537;-89
2022/08/04 00:49:48;;;;;;;8.55;2.95;;;;;;;;;;6239384;23;20163;-89
2022/08/04 00:53:08;;;;;;;4.22;2.65;;;;;;;;;;6239293;23;20219;-90
2022/08/04 00:56:20;;;;;;;7.30;2.60;;;;;;;;;;6239723;23;20189;-90
2022/08/04 00:59:35;;;;;;;7.95;2.80;;;;;;;;;;6242432;23;20170;-89
2022/08/04 01:02:47;;;;;;;5.43;2.60;;;;;;;;;;6239403;23;20182;-89
2022/08/04 01:06:02;;;;;;;8.52;2.83;;;;;;;;;;6238741;23;20210;-89
2022/08/04 01:09:19;;;;;;;4.78;2.53;;;;;;;;;;6239383;23;20166;-90
2022/08/04 01:12:38;;;;;;;5.70;2.85;;;;;;;;;;6240185;23;20297;-90
2022/08/04 01:15:46;;;;;;;4.57;2.63;;;;;;;;;;6238124;23;20266;-91
2022/08/04 01:18:56;;;;;;;6.03;2.45;;;;;;;;;;6240307;22;20155;-90
2022/08/04 01:22:12;;;;;;;7.95;2.83;;;;;;;;;;6240848;22;20170;-90
2022/08/04 01:25:36;;;;;;;5.70;2.60;;;;;;;;;;6243237;23;20195;-89
2022/08/04 01:28:49;;;;;;;4.60;2.55;;;;;;;;;;6240068;23;20170;-91
2022/08/04 01:32:03;;;;;;;7.85;2.88;;;;;;;;;;6241802;22;20150;-91
2022/08/04 01:35:12;;;;;;;6.00;2.83;;;;;;;;;;6242747;22;20149;-91
2022/08/04 01:38:18;;;;;;;9.52;3.00;;;;;;;;;;6240233;23;20230;-91
2022/08/04 01:41:24;;;;;;;8.27;3.00;;;;;;;;;;6241122;23;20249;-90
2022/08/04 01:45:06;;;;;;;4.43;2.83;;;;;;;;;;6238100;23;20505;-90
2022/08/04 01:48:13;;;;;;;5.20;3.22;;;;;;;;;;6239868;23;20151;-90
2022/08/04 01:51:18;;;;;;;4.63;2.92;;;;;;;;;;6240425;23;20610;-90
2022/08/04 01:54:24;;;;;;;5.82;2.80;;;;;;;;;;6241611;23;20239;-89
2022/08/04 01:57:29;;;;;;;7.20;2.88;;;;;;;;;;6239599;23;20174;-91
2022/08/04 02:00:34;;;;;;;7.97;3.03;;;;;;;;;;6240768;23;20173;-89
2022/08/04 02:03:42;;;;;;;4.88;3.03;;;;;;;;;;6241042;23;20166;-89
2022/08/04 02:06:50;;;;;;;10.77;3.60;;;;;;;;;;6240385;23;20198;-90
2022/08/04 02:10:02;;;;;;;7.90;3.28;;;;;;;;;;6240445;23;20730;-89
2022/08/04 02:13:11;;;;;;;9.90;3.22;;;;;;;;;;6239577;23;20170;-89
2022/08/04 02:16:25;;;;;;;5.22;2.80;;;;;;;;;;6241974;22;20235;-90
2022/08/04 02:19:33;;;;;;;5.28;2.90;;;;;;;;;;6242059;23;20186;-91
2022/08/04 02:22:41;;;;;;;4.60;2.80;;;;;;;;;;6242327;23;20223;-91
2022/08/04 02:25:47;;;;;;;7.93;3.35;;;;;;;;;;6241514;23;20198;-90
2022/08/04 02:28:55;;;;;;;4.45;2.90;;;;;;;;;;6240875;23;20178;-91
2022/08/04 02:32:04;;;;;;;7.60;3.10;;;;;;;;;;6240877;22;20182;-90
2022/08/04 02:35:14;;;;;;;6.80;2.92;;;;;;;;;;6239671;23;20213;-92
2022/08/04 02:38:24;;;;;;;7.53;3.55;;;;;;;;;;6240937;23;20285;-91
2022/08/04 02:41:31;;;;;;;6.60;3.50;;;;;;;;;;6240842;22;20167;-92
2022/08/04 02:44:39;;;;;;;6.78;3.45;;;;;;;;;;6240373;23;20510;-91
2022/08/04 02:47:45;;;;;;;8.05;3.28;;;;;;;;;;6240194;23;20194;-91
2022/08/04 02:50:54;;;;;;;7.55;2.80;;;;;;;;;;6241150;23;20170;-90
2022/08/04 02:54:03;;;;;;;8.23;3.10;;;;;;;;;;6241356;23;20177;-92
2022/08/04 02:57:09;;;;;;;6.35;3.60;;;;;;;;;;6240553;23;20171;-90
2022/08/04 03:00:17;;;;;;;4.43;3.10;;;;;;;;;;6240413;23;20198;-92
2022/08/04 03:03:25;;;;;;;8.63;3.58;;;;;;;;;;6239902;23;20174;-92
2022/08/04 03:06:52;;;;;;;5.32;3.20;;;;;;;;;;6241317;23;20194;-90
2022/08/04 03:10:06;;;;;;;5.40;3.22;;;;;;;;;;6239508;23;20171;-90
2022/08/04 03:13:29;;;;;;;5.82;3.30;;;;;;;;;;6238646;23;20154;-89
2022/08/04 03:16:47;;;;;;;7.88;3.47;;;;;;;;;;6239516;22;20593;-89
2022/08/04 03:20:19;;;;;;;6.18;3.35;;;;;;;;;;6239107;22;20178;-89
2022/08/04 03:23:42;;;;;;;8.77;3.28;;;;;;;;;;6209551;23;20190;-89
2022/08/04 03:27:00;;;;;;;8.23;3.38;;;;;;;;;;6256612;23;20193;-90
2022/08/04 03:30:07;;;;;;;6.22;3.42;;;;;;;;;;6238859;23;20170;-90
2022/08/04 03:33:34;;;;;;;8.40;4.00;;;;;;;;;;6240103;22;20163;-88
2022/08/04 03:36:51;;;;;;;5.25;3.20;;;;;;;;;;6239082;23;20158;-91
2022/08/04 03:40:08;;;;;;;4.97;3.28;;;;;;;;;;6240456;23;20243;-90
2022/08/04 03:43:36;;;;;;;8.60;3.30;;;;;;;;;;6240859;23;20170;-90
2022/08/04 03:46:52;;;;;;;6.07;3.50;;;;;;;;;;6239148;23;20817;-90
2022/08/04 03:50:11;;;;;;;5.32;3.50;;;;;;;;;;6241504;23;20186;-91
2022/08/04 03:53:26;;;;;;;5.38;3.72;;;;;;;;;;6239997;23;20190;-89
2022/08/04 03:56:38;;;;;;;9.00;3.55;;;;;;;;;;6241499;23;20183;-90
2022/08/04 03:59:51;;;;;;;6.57;3.35;;;;;;;;;;6239302;23;20170;-90
2022/08/04 04:03:24;;;;;;;7.88;3.58;;;;;;;;;;6240590;23;20158;-91
2022/08/04 04:06:42;;;;;;;6.38;3.65;;;;;;;;;;6239590;23;20272;-90
2022/08/04 04:10:02;;;;;;;6.93;3.67;;;;;;;;;;6240428;23;20281;-91
2022/08/04 04:13:19;;;;;;;4.85;3.15;;;;;;;;;;6238464;23;20174;-90
2022/08/04 04:16:39;;;;;;;4.78;3.20;;;;;;;;;;6240868;23;20171;-91
2022/08/04 04:19:55;;;;;;;5.22;3.40;;;;;;;;;;6239417;23;20655;-91
2022/08/04 04:23:07;;;;;;;7.65;3.58;;;;;;;;;;6239883;23;20238;-90
2022/08/04 04:26:25;;;;;;;6.72;3.10;;;;;;;;;;6239025;23;20194;-90
2022/08/04 04:29:36;;;;;;;8.25;3.33;;;;;;;;;;6240306;23;20166;-91
2022/08/04 04:33:02;;;;;;;7.60;3.40;;;;;;;;;;6240159;23;20162;-90
2022/08/04 04:36:12;;;;;;;12.23;4.75;;;;;;;;;;6220048;23;20551;-91
2022/08/04 04:39:22;;;;;;;7.93;3.60;;;;;;;;;;6239400;23;20170;-91
2022/08/04 04:42:33;;;;;;;9.55;3.55;;;;;;;;;;6241089;23;20300;-90
2022/08/04 04:50:00;;;;;;;7.38;3.45;;;;;;;;;;6257514;23;20159;-91
2022/08/04 04:53:08;;;;;;;8.57;3.35;;;;;;;;;;6237672;23;20186;-92
2022/08/04 04:56:18;;;;;;;6.90;3.30;;;;;;;;;;6238247;23;20154;-94
2022/08/04 04:59:25;;;;;;;6.38;3.90;;;;;;;;;;6239501;23;20245;-91
2022/08/04 05:02:38;;;;;;;6.90;3.47;;;;;;;;;;6239423;23;20170;-90
2022/08/04 05:05:57;;;;;;;9.13;3.85;;;;;;;;;;6240602;23;20209;-93
2022/08/04 05:09:13;;;;;;;10.30;4.20;;;;;;;;;;6241168;23;20226;-91
2022/08/04 05:12:37;;;;;;;5.93;3.67;;;;;;;;;;6240053;23;20186;-92
2022/08/04 05:15:45;;;;;;;11.43;4.00;;;;;;;;;;6238711;23;20223;-91
2022/08/04 05:18:55;;;;;;;5.43;3.40;;;;;;;;;;6238556;22;20174;-90
2022/08/04 05:22:02;;;;;;;9.02;3.42;;;;;;;;;;6239876;22;20166;-91
2022/08/04 05:25:09;;;;;;;6.47;3.55;;;;;;;;;;6241289;23;20171;-92
2022/08/04 05:28:18;;;;;;;18.60;3.72;;;;;;;;;;6240462;23;20198;-91
2022/08/04 05:31:25;;;;;;;4.85;3.45;;;;;;;;;;6239288;23;20289;-91
2022/08/04 05:34:32;;;;;;;7.72;3.60;;;;;;;;;;6240910;23;20498;-93
2022/08/04 05:37:43;;;;;;;6.18;3.53;;;;;;;;;;6241877;23;20175;-91
2022/08/04 05:40:50;;;;;;;6.72;3.60;;;;;;;;;;6242546;22;20202;-92
2022/08/04 05:43:58;;;;;;;7.20;3.25;;;;;;;;;;6241570;22;20162;-91
2022/08/04 05:47:04;;;;;;;23.00;4.13;;;;;;;;;;6243078;23;20209;-93
2022/08/04 05:50:09;;;;;;;5.35;3.35;;;;;;;;;;6245651;23;20171;-92
2022/08/04 05:53:16;;;;;;;10.90;3.80;;;;;;;;;;6244361;23;20158;-91
2022/08/04 05:56:21;;;;;;;7.88;4.38;;;;;;;;;;6244408;23;20175;-91
2022/08/04 05:59:39;;;;;;;10.65;4.15;;;;;;;;;;6242785;23;20166;-90
2022/08/04 06:02:46;;;;;;;6.55;3.15;;;;;;;;;;6241534;23;20174;-91
2022/08/04 06:05:53;;;;;;;6.05;3.30;;;;;;;;;;6245751;23;20190;-91
2022/08/04 06:09:00;;;;;;;6.18;3.28;;;;;;;;;;6226098;23;20193;-91
2022/08/04 06:12:08;;;;;;;12.27;3.40;;;;;;;;;;6244100;23;20182;-91
2022/08/04 06:15:17;;;;;;;7.80;3.35;;;;;;;;;;6244198;23;20190;-90
2022/08/04 06:18:25;;;;;;;7.07;2.78;;;;;;;;;;6244455;23;20497;-89
2022/08/04 06:21:32;;;;;;;6.93;3.22;;;;;;;;;;6242734;23;20231;-90
2022/08/04 06:24:38;;;;;;;6.15;2.70;;;;;;;;;;6243531;23;20178;-90
2022/08/04 06:27:44;;;;;;;6.13;3.22;;;;;;;;;;6243228;23;20233;-92
2022/08/04 06:30:51;;;;;;;7.30;2.80;;;;;;;;;;6244750;23;20163;-89
2022/08/04 06:33:57;;;;;;;8.73;3.00;;;;;;;;;;6247465;23;20219;-90
2022/08/04 06:37:02;;;;;;;6.72;2.60;;;;;;;;;;6244216;22;20162;-91
2022/08/04 06:40:09;;;;;;;5.20;2.75;;;;;;;;;;6244709;23;20171;-90
2022/08/04 10:46:30;;;;;;;2.00;1.80;;;;;;;;;;6251257;22;20193;-92
2022/08/04 10:49:39;;;;;;;5.72;2.00;;;;;;;;;;6245148;23;20209;-94
2022/08/04 10:52:45;;;;;;;3.75;1.67;;;;;;;;;;6247062;22;20185;-94
2022/08/04 10:55:54;;;;;;;3.90;1.85;;;;;;;;;;6247213;23;20169;-93
2022/08/04 10:59:01;;;;;;;3.10;1.85;;;;;;;;;;6248650;22;20170;-91
2022/08/04 11:05:38;;;;;;;5.38;1.63;;;;;;;;;;6248884;23;20633;-92
2022/08/04 11:08:46;;;;;;;1.92;1.70;;;;;;;;;;6244039;23;20549;-91
2022/08/04 11:11:54;;;;;;;3.40;1.95;;;;;;;;;;6243792;23;20164;-93
2022/08/04 11:15:03;;;;;;;1.80;1.70;;;;;;;;;;6243140;23;20633;-93
2022/08/04 11:18:14;;;;;;;2.10;1.90;;;;;;;;;;6242174;23;20178;-93
2022/08/04 11:21:21;;;;;;;1.88;1.75;;;;;;;;;;6244412;23;20166;-94
2022/08/04 11:24:32;;;;;;;4.55;1.70;;;;;;;;;;6242826;23;20238;-93
2022/08/04 11:27:41;;;;;;;3.38;1.70;;;;;;;;;;6245479;23;20229;-92
2022/08/04 11:30:50;;;;;;;4.60;1.80;;;;;;;;;;6243801;23;20170;-95
2022/08/04 11:34:11;;;;;;;2.78;1.85;;;;;;;;;;6246828;22;20197;-93
2022/08/04 11:37:19;;;;;;;4.43;1.50;;;;;;;;;;6244251;22;20173;-92
2022/08/04 11:40:25;;;;;;;3.10;1.70;;;;;;;;;;6243620;22;20248;-91
2022/08/04 11:43:36;;;;;;;3.95;2.28;;;;;;;;;;6248359;23;20238;-91
2022/08/04 11:46:45;;;;;;;2.88;1.70;;;;;;;;;;6261957;23;20198;-93
2022/08/04 11:49:53;;;;;;;1.67;1.40;;;;;;;;;;6246231;22;20149;-94
2022/08/04 11:53:01;;;;;;;9.38;2.47;;;;;;;;;;6245568;23;20233;-92
2022/08/04 11:56:08;;;;;;;1.90;1.55;;;;;;;;;;6245050;23;20211;-94
2022/08/04 11:59:14;;;;;;;2.13;1.50;;;;;;;;;;6247072;23;20551;-94
2022/08/04 12:02:29;;;;;;;3.28;1.70;;;;;;;;;;6246957;22;20162;-93
2022/08/04 12:05:37;;;;;;;3.25;1.60;;;;;;;;;;6248812;22;20148;-92
2022/08/04 12:08:52;;;;;;;2.88;1.73;;;;;;;;;;6246736;23;20193;-92
2022/08/04 12:12:01;;;;;;;2.38;1.75;;;;;;;;;;6248775;23;20257;-93
2022/08/04 12:15:14;;;;;;;1.95;1.58;;;;;;;;;;6246534;23;20602;-94
2022/08/04 12:18:22;;;;;;;3.55;2.70;;;;;;;;;;6246070;23;20209;-93
2022/08/04 12:21:30;;;;;;;2.97;2.08;;;;;;;;;;6245961;23;20162;-93
2022/08/04 12:24:39;;;;;;;2.40;1.60;;;;;;;;;;6245131;23;20511;-94
2022/08/04 12:27:48;;;;;;;1.48;1.38;;;;;;;;;;6245231;23;20269;-92
2022/08/04 12:30:58;;;;;;;7.32;3.00;;;;;;;;;;6244451;23;20177;-94
2022/08/04 12:34:07;;;;;;;3.17;1.52;;;;;;;;;;6246323;22;20178;-93
2022/08/04 12:37:19;;;;;;;3.97;1.80;;;;;;;;;;6246279;22;20166;-93
2022/08/04 12:40:26;;;;;;;2.58;1.58;;;;;;;;;;6246435;23;20174;-92
2022/08/04 12:43:38;;;;;;;3.47;1.60;;;;;;;;;;6247716;23;20170;-93
2022/08/04 12:46:47;;;;;;;2.15;1.60;;;;;;;;;;6244685;23;20189;-91
2022/08/04 12:49:53;;;;;;;2.85;1.50;;;;;;;;;;6244740;22;20193;-92
2022/08/04 12:52:58;;;;;;;3.60;1.40;;;;;;;;;;6243153;23;20628;-92
2022/08/04 12:56:07;;;;;;;3.88;1.67;;;;;;;;;;6244567;23;20211;-93
2022/08/04 12:59:13;;;;;;;2.58;1.40;;;;;;;;;;6241681;23;20290;-91
2022/08/04 13:02:21;;;;;;;3.78;1.70;;;;;;;;;;6244216;23;20177;-91
2022/08/04 13:05:30;;;;;;;7.93;1.85;;;;;;;;;;6247513;23;20193;-93
2022/08/04 13:08:39;;;;;;;6.38;1.80;;;;;;;;;;6245502;23;20196;-92
2022/08/04 13:11:50;;;;;;;1.42;1.30;;;;;;;;;;6245592;23;20173;-92
2022/08/04 13:15:06;;;;;;;2.40;1.83;;;;;;;;;;6245171;23;20534;-93
2022/08/04 13:18:14;;;;;;;4.22;1.50;;;;;;;;;;6246941;23;20213;-93
2022/08/04 13:21:22;;;;;;;3.30;1.48;;;;;;;;;;6245215;22;20153;-93
2022/08/04 13:24:30;;;;;;;1.85;1.65;;;;;;;;;;6247150;23;20206;-92
2022/08/04 13:27:39;;;;;;;2.75;1.90;;;;;;;;;;6245151;23;20337;-93
2022/08/04 13:30:46;;;;;;;1.92;1.60;;;;;;;;;;6244585;23;20245;-92
2022/08/04 13:33:53;;;;;;;3.47;1.50;;;;;;;;;;6247810;23;20162;-92
2022/08/04 13:37:03;;;;;;;2.50;1.70;;;;;;;;;;6248946;22;20162;-93
2022/08/04 13:40:10;;;;;;;2.60;1.70;;;;;;;;;;6245247;22;20289;-93
2022/08/04 13:43:25;;;;;;;2.60;1.88;;;;;;;;;;6245389;23;20234;-92
2022/08/04 13:50:53;;;;;;;2.10;1.63;;;;;;;;;;6264066;22;20238;-93
2022/08/04 13:53:59;;;;;;;3.33;1.60;;;;;;;;;;6248308;23;20208;-94
2022/08/04 13:57:09;;;;;;;1.95;1.65;;;;;;;;;;6247358;22;20273;-92
2022/08/04 14:00:17;;;;;;;4.82;2.05;;;;;;;;;;6242606;23;20502;-93
2022/08/04 14:03:24;;;;;;;4.40;1.50;;;;;;;;;;6244675;23;20215;-93
2022/08/04 14:06:33;;;;;;;2.25;1.60;;;;;;;;;;6243127;23;20242;-91
2022/08/04 14:09:39;;;;;;;4.18;2.65;;;;;;;;;;6243495;23;20276;-93
2022/08/04 15:32:28;;;;;;;2.70;1.90;;;;;;;;;;6250302;22;20189;-91
2022/08/04 15:35:35;;;;;;;4.85;1.60;;;;;;;;;;6247559;23;20221;-94
2022/08/04 15:38:42;;;;;;;4.10;2.05;;;;;;;;;;6247017;22;20154;-91
2022/08/04 15:41:52;;;;;;;6.75;2.00;;;;;;;;;;6248678;23;20213;-92
2022/08/04 18:35:47;;;;;;;5.45;2.60;;;;;;;;;;6199811;23;20171;-92
2022/08/04 18:38:52;;;;;;;5.68;2.85;;;;;;;;;;6184232;23;20217;-91
2022/08/04 18:41:58;;;;;;;8.70;2.70;;;;;;;;;;6182306;23;20268;-91
2022/08/04 18:45:08;;;;;;;3.70;2.50;;;;;;;;;;6183070;23;20176;-92
2022/08/04 18:48:14;;;;;;;6.32;2.42;;;;;;;;;;6183459;23;20195;-91
2022/08/04 18:51:20;;;;;;;4.00;2.03;;;;;;;;;;6181601;23;20327;-91
2022/08/04 18:54:26;;;;;;;4.47;2.38;;;;;;;;;;6181445;23;20171;-92
2022/08/04 18:57:31;;;;;;;3.67;2.63;;;;;;;;;;6183282;23;20164;-91
2022/08/04 19:00:36;;;;;;;7.85;2.90;;;;;;;;;;6184460;23;20619;-92
2022/08/04 19:03:42;;;;;;;4.47;2.40;;;;;;;;;;6185225;23;20172;-90
2022/08/04 19:06:49;;;;;;;6.32;2.80;;;;;;;;;;6182262;23;20171;-91
2022/08/04 19:09:54;;;;;;;3.72;2.60;;;;;;;;;;6189303;23;20200;-92
2022/08/04 19:12:59;;;;;;;6.78;2.88;;;;;;;;;;6190757;23;20163;-91
2022/08/04 19:16:05;;;;;;;6.25;2.55;;;;;;;;;;6186561;23;20199;-91
2022/08/04 19:19:10;;;;;;;7.72;2.67;;;;;;;;;;6187967;23;20509;-88
2022/08/04 19:22:17;;;;;;;4.20;2.75;;;;;;;;;;6187413;23;20255;-90
2022/08/04 19:25:23;;;;;;;3.70;2.47;;;;;;;;;;6186839;23;20183;-90
2022/08/04 19:28:31;;;;;;;4.68;2.53;;;;;;;;;;6188014;23;20191;-91
2022/08/04 19:31:37;;;;;;;6.80;2.75;;;;;;;;;;6189466;23;20167;-90
2022/08/04 19:34:43;;;;;;;5.93;2.60;;;;;;;;;;6190750;23;20184;-91
2022/08/04 19:38:00;;;;;;;6.97;2.72;;;;;;;;;;6192194;23;20217;-90
2022/08/04 19:41:10;;;;;;;4.45;3.05;;;;;;;;;;6191991;23;20160;-91
2022/08/04 19:44:32;;;;;;;5.18;2.60;;;;;;;;;;6191182;23;20155;-91
2022/08/04 19:47:38;;;;;;;7.88;3.85;;;;;;;;;;6190428;23;20167;-90
2022/08/04 19:50:44;;;;;;;6.22;2.53;;;;;;;;;;6190903;23;20174;-90
2022/08/04 19:53:58;;;;;;;7.25;2.40;;;;;;;;;;6190542;23;20168;-91
2022/08/04 19:57:06;;;;;;;5.55;2.50;;;;;;;;;;6190749;23;20608;-91
2022/08/04 20:00:13;;;;;;;10.85;5.22;;;;;;;;;;6191079;23;20247;-89
2022/08/04 20:03:20;;;;;;;4.45;2.70;;;;;;;;;;6190600;23;20188;-91
